sensor_id;sensor_type;location;lat;lon;timestamp;temperature;humidity
32215;DHT22;18708;53.124;23.190;2023-03-03T00:02:02;-1.20;99.90
32215;DHT22;18708;53.124;23.190;2023-03-03T00:04:28;-1.20;99.90
32215;DHT22;18708;53.124;23.190;2023-03-03T00:06:53;-1.20;99.90
32215;DHT22;18708;53.124;23.190;2023-03-03T00:09:19;-1.20;99.90
32215;DHT22;18708;53.124;23.190;2023-03-03T00:11:47;-1.20;99.90
32215;DHT22;18708;53.124;23.190;2023-03-03T00:14:22;-1.20;99.90
32215;DHT22;18708;53.124;23.190;2023-03-03T00:16:50;-1.30;99.90
32215;DHT22;18708;53.124;23.190;2023-03-03T00:19:19;-1.30;99.90
32215;DHT22;18708;53.124;23.190;2023-03-03T00:21:47;-1.20;99.90
32215;DHT22;18708;53.124;23.190;2023-03-03T00:26:41;-1.10;99.90
32215;DHT22;18708;53.124;23.190;2023-03-03T00:34:37;-1.20;99.90
32215;DHT22;18708;53.124;23.190;2023-03-03T00:37:10;-1.10;99.90
32215;DHT22;18708;53.124;23.190;2023-03-03T00:39:44;-1.10;99.90
32215;DHT22;18708;53.124;23.190;2023-03-03T00:42:13;-1.10;99.90
32215;DHT22;18708;53.124;23.190;2023-03-03T00:47:30;-0.90;99.90
32215;DHT22;18708;53.124;23.190;2023-03-03T00:52:36;-1.10;99.90
32215;DHT22;18708;53.124;23.190;2023-03-03T00:55:02;-1.00;99.90
32215;DHT22;18708;53.124;23.190;2023-03-03T00:57:29;-1.10;99.90
32215;DHT22;18708;53.124;23.190;2023-03-03T00:59:54;-1.20;99.90
32215;DHT22;18708;53.124;23.190;2023-03-03T01:02:20;-1.20;99.90
32215;DHT22;18708;53.124;23.190;2023-03-03T01:04:49;-1.30;99.90
32215;DHT22;18708;53.124;23.190;2023-03-03T01:07:16;-1.30;99.90
32215;DHT22;18708;53.124;23.190;2023-03-03T01:09:42;-1.30;99.90
32215;DHT22;18708;53.124;23.190;2023-03-03T01:12:08;-1.40;99.90
32215;DHT22;18708;53.124;23.190;2023-03-03T01:14:34;-1.50;99.90
32215;DHT22;18708;53.124;23.190;2023-03-03T01:16:59;-1.50;99.90
32215;DHT22;18708;53.124;23.190;2023-03-03T01:19:25;-1.60;99.90
32215;DHT22;18708;53.124;23.190;2023-03-03T01:21:51;-1.60;99.90
32215;DHT22;18708;53.124;23.190;2023-03-03T01:24:16;-1.60;99.90
32215;DHT22;18708;53.124;23.190;2023-03-03T01:26:42;-1.70;99.90
32215;DHT22;18708;53.124;23.190;2023-03-03T01:29:08;-1.60;99.90
32215;DHT22;18708;53.124;23.190;2023-03-03T01:31:34;-1.70;99.90
32215;DHT22;18708;53.124;23.190;2023-03-03T01:34:00;-1.70;99.90
32215;DHT22;18708;53.124;23.190;2023-03-03T01:36:27;-1.70;99.90
32215;DHT22;18708;53.124;23.190;2023-03-03T01:38:53;-1.70;99.90
32215;DHT22;18708;53.124;23.190;2023-03-03T01:41:19;-1.80;99.90
32215;DHT22;18708;53.124;23.190;2023-03-03T01:43:47;-1.90;99.90
32215;DHT22;18708;53.124;23.190;2023-03-03T01:48:49;-1.90;99.90
32215;DHT22;18708;53.124;23.190;2023-03-03T01:51:23;-2.00;99.90
32215;DHT22;18708;53.124;23.190;2023-03-03T01:53:55;-2.00;99.90
32215;DHT22;18708;53.124;23.190;2023-03-03T01:56:22;-2.10;99.90
32215;DHT22;18708;53.124;23.190;2023-03-03T01:58:57;-2.20;99.90
32215;DHT22;18708;53.124;23.190;2023-03-03T02:01:26;-2.30;99.90
32215;DHT22;18708;53.124;23.190;2023-03-03T02:03:52;-2.30;99.90
32215;DHT22;18708;53.124;23.190;2023-03-03T02:06:21;-2.30;99.90
32215;DHT22;18708;53.124;23.190;2023-03-03T02:09:01;-2.30;99.90
32215;DHT22;18708;53.124;23.190;2023-03-03T02:11:35;-2.30;99.90
32215;DHT22;18708;53.124;23.190;2023-03-03T02:14:01;-2.30;99.90
32215;DHT22;18708;53.124;23.190;2023-03-03T02:16:27;-2.30;99.90
32215;DHT22;18708;53.124;23.190;2023-03-03T02:18:52;-2.20;99.90
32215;DHT22;18708;53.124;23.190;2023-03-03T02:21:20;-2.20;99.90
32215;DHT22;18708;53.124;23.190;2023-03-03T02:26:22;-2.10;99.90
32215;DHT22;18708;53.124;23.190;2023-03-03T02:28:49;-1.90;99.90
32215;DHT22;18708;53.124;23.190;2023-03-03T02:31:19;-2.00;99.90
32215;DHT22;18708;53.124;23.190;2023-03-03T02:33:47;-2.00;99.90
32215;DHT22;18708;53.124;23.190;2023-03-03T02:36:16;-2.00;99.90
32215;DHT22;18708;53.124;23.190;2023-03-03T02:44:07;-2.10;99.90
32215;DHT22;18708;53.124;23.190;2023-03-03T02:46:39;-2.10;99.90
32215;DHT22;18708;53.124;23.190;2023-03-03T02:49:07;-2.10;99.90
32215;DHT22;18708;53.124;23.190;2023-03-03T02:51:33;-2.20;99.90
32215;DHT22;18708;53.124;23.190;2023-03-03T02:53:59;-2.20;99.90
32215;DHT22;18708;53.124;23.190;2023-03-03T02:56:25;-2.20;99.90
32215;DHT22;18708;53.124;23.190;2023-03-03T02:58:51;-2.20;99.90
32215;DHT22;18708;53.124;23.190;2023-03-03T03:01:17;-2.10;99.90
32215;DHT22;18708;53.124;23.190;2023-03-03T03:03:43;-2.10;99.90
32215;DHT22;18708;53.124;23.190;2023-03-03T03:06:09;-2.10;99.90
32215;DHT22;18708;53.124;23.190;2023-03-03T03:08:35;-2.00;99.90
32215;DHT22;18708;53.124;23.190;2023-03-03T03:11:00;-2.00;99.90
32215;DHT22;18708;53.124;23.190;2023-03-03T03:13:27;-2.00;99.90
32215;DHT22;18708;53.124;23.190;2023-03-03T03:15:52;-2.00;99.90
32215;DHT22;18708;53.124;23.190;2023-03-03T03:18:18;-2.00;99.90
32215;DHT22;18708;53.124;23.190;2023-03-03T03:20:47;-2.00;99.90
32215;DHT22;18708;53.124;23.190;2023-03-03T03:23:13;-2.00;99.90
32215;DHT22;18708;53.124;23.190;2023-03-03T03:25:38;-2.10;99.90
32215;DHT22;18708;53.124;23.190;2023-03-03T03:28:11;-2.10;99.90
32215;DHT22;18708;53.124;23.190;2023-03-03T03:30:37;-2.10;99.90
32215;DHT22;18708;53.124;23.190;2023-03-03T03:33:02;-2.00;99.90
32215;DHT22;18708;53.124;23.190;2023-03-03T03:35:28;-1.90;99.90
32215;DHT22;18708;53.124;23.190;2023-03-03T03:37:54;-1.80;99.90
32215;DHT22;18708;53.124;23.190;2023-03-03T03:40:19;-1.80;99.90
32215;DHT22;18708;53.124;23.190;2023-03-03T03:42:45;-1.80;99.90
32215;DHT22;18708;53.124;23.190;2023-03-03T03:45:11;-1.80;99.90
32215;DHT22;18708;53.124;23.190;2023-03-03T03:47:40;-1.80;99.90
32215;DHT22;18708;53.124;23.190;2023-03-03T03:50:07;-1.80;99.90
32215;DHT22;18708;53.124;23.190;2023-03-03T03:52:33;-1.80;99.90
32215;DHT22;18708;53.124;23.190;2023-03-03T03:54:58;-1.70;99.90
32215;DHT22;18708;53.124;23.190;2023-03-03T03:57:24;-1.70;99.90
32215;DHT22;18708;53.124;23.190;2023-03-03T03:59:50;-1.80;99.90
32215;DHT22;18708;53.124;23.190;2023-03-03T04:02:15;-1.80;99.90
32215;DHT22;18708;53.124;23.190;2023-03-03T04:04:41;-1.90;99.90
32215;DHT22;18708;53.124;23.190;2023-03-03T04:07:07;-1.90;99.90
32215;DHT22;18708;53.124;23.190;2023-03-03T04:09:33;-1.90;99.90
32215;DHT22;18708;53.124;23.190;2023-03-03T04:11:59;-1.90;99.90
32215;DHT22;18708;53.124;23.190;2023-03-03T04:14:25;-1.90;99.90
32215;DHT22;18708;53.124;23.190;2023-03-03T04:16:50;-2.00;99.90
32215;DHT22;18708;53.124;23.190;2023-03-03T04:19:16;-1.90;99.90
32215;DHT22;18708;53.124;23.190;2023-03-03T04:21:42;-1.90;99.90
32215;DHT22;18708;53.124;23.190;2023-03-03T04:24:08;-1.90;99.90
32215;DHT22;18708;53.124;23.190;2023-03-03T04:26:33;-1.90;99.90
32215;DHT22;18708;53.124;23.190;2023-03-03T04:28:59;-1.80;99.90
32215;DHT22;18708;53.124;23.190;2023-03-03T04:31:26;-1.90;99.90
32215;DHT22;18708;53.124;23.190;2023-03-03T04:33:52;-1.80;99.90
32215;DHT22;18708;53.124;23.190;2023-03-03T04:36:18;-1.90;99.90
32215;DHT22;18708;53.124;23.190;2023-03-03T04:38:44;-1.80;99.90
32215;DHT22;18708;53.124;23.190;2023-03-03T04:41:10;-1.70;99.90
32215;DHT22;18708;53.124;23.190;2023-03-03T04:43:36;-1.70;99.90
32215;DHT22;18708;53.124;23.190;2023-03-03T04:46:01;-1.60;99.90
32215;DHT22;18708;53.124;23.190;2023-03-03T04:48:27;-1.50;99.90
32215;DHT22;18708;53.124;23.190;2023-03-03T04:50:53;-1.40;99.90
32215;DHT22;18708;53.124;23.190;2023-03-03T04:53:19;-1.30;99.90
32215;DHT22;18708;53.124;23.190;2023-03-03T04:55:45;-1.40;99.90
32215;DHT22;18708;53.124;23.190;2023-03-03T04:58:10;-1.50;99.90
32215;DHT22;18708;53.124;23.190;2023-03-03T05:00:36;-1.40;99.90
32215;DHT22;18708;53.124;23.190;2023-03-03T05:03:02;-1.40;99.90
32215;DHT22;18708;53.124;23.190;2023-03-03T05:05:28;-1.50;99.90
32215;DHT22;18708;53.124;23.190;2023-03-03T05:07:54;-1.60;99.90
32215;DHT22;18708;53.124;23.190;2023-03-03T05:10:19;-1.50;99.90
32215;DHT22;18708;53.124;23.190;2023-03-03T05:12:45;-1.50;99.90
32215;DHT22;18708;53.124;23.190;2023-03-03T05:15:11;-1.50;99.90
32215;DHT22;18708;53.124;23.190;2023-03-03T05:17:37;-1.40;99.90
32215;DHT22;18708;53.124;23.190;2023-03-03T05:20:04;-1.30;99.90
32215;DHT22;18708;53.124;23.190;2023-03-03T05:22:33;-1.20;99.90
32215;DHT22;18708;53.124;23.190;2023-03-03T05:24:58;-1.20;99.90
32215;DHT22;18708;53.124;23.190;2023-03-03T05:27:24;-1.10;99.90
32215;DHT22;18708;53.124;23.190;2023-03-03T05:29:50;-1.10;99.90
32215;DHT22;18708;53.124;23.190;2023-03-03T05:32:16;-1.10;99.90
32215;DHT22;18708;53.124;23.190;2023-03-03T05:34:41;-1.20;99.90
32215;DHT22;18708;53.124;23.190;2023-03-03T05:37:07;-1.10;99.90
32215;DHT22;18708;53.124;23.190;2023-03-03T05:39:33;-1.10;99.90
32215;DHT22;18708;53.124;23.190;2023-03-03T05:41:59;-1.00;99.90
32215;DHT22;18708;53.124;23.190;2023-03-03T05:44:25;-1.00;99.90
32215;DHT22;18708;53.124;23.190;2023-03-03T05:46:51;-1.00;99.90
32215;DHT22;18708;53.124;23.190;2023-03-03T05:49:17;-1.00;99.90
32215;DHT22;18708;53.124;23.190;2023-03-03T05:51:43;-1.00;99.90
32215;DHT22;18708;53.124;23.190;2023-03-03T05:54:08;-0.90;99.90
32215;DHT22;18708;53.124;23.190;2023-03-03T05:56:34;-0.70;99.90
32215;DHT22;18708;53.124;23.190;2023-03-03T05:59:00;-0.70;99.90
32215;DHT22;18708;53.124;23.190;2023-03-03T06:01:25;-0.60;99.90
32215;DHT22;18708;53.124;23.190;2023-03-03T06:03:52;-0.60;99.90
32215;DHT22;18708;53.124;23.190;2023-03-03T06:06:17;-0.60;99.90
32215;DHT22;18708;53.124;23.190;2023-03-03T06:08:44;-0.60;99.90
32215;DHT22;18708;53.124;23.190;2023-03-03T06:11:10;-0.60;99.90
32215;DHT22;18708;53.124;23.190;2023-03-03T06:13:36;-0.50;99.90
32215;DHT22;18708;53.124;23.190;2023-03-03T06:16:02;-0.40;99.90
32215;DHT22;18708;53.124;23.190;2023-03-03T06:18:27;-0.40;99.90
32215;DHT22;18708;53.124;23.190;2023-03-03T06:20:54;-0.40;99.90
32215;DHT22;18708;53.124;23.190;2023-03-03T06:23:20;-0.40;99.90
32215;DHT22;18708;53.124;23.190;2023-03-03T06:25:46;-0.40;99.90
32215;DHT22;18708;53.124;23.190;2023-03-03T06:28:12;-0.40;99.90
32215;DHT22;18708;53.124;23.190;2023-03-03T06:30:39;-0.30;99.90
32215;DHT22;18708;53.124;23.190;2023-03-03T06:33:04;-0.30;99.90
32215;DHT22;18708;53.124;23.190;2023-03-03T06:35:30;-0.30;99.90
32215;DHT22;18708;53.124;23.190;2023-03-03T06:37:56;-0.10;99.90
32215;DHT22;18708;53.124;23.190;2023-03-03T06:40:22;0.10;99.90
32215;DHT22;18708;53.124;23.190;2023-03-03T06:42:47;0.30;99.90
32215;DHT22;18708;53.124;23.190;2023-03-03T06:45:15;0.50;99.90
32215;DHT22;18708;53.124;23.190;2023-03-03T06:47:41;0.70;99.90
32215;DHT22;18708;53.124;23.190;2023-03-03T06:50:08;0.70;99.90
32215;DHT22;18708;53.124;23.190;2023-03-03T06:52:35;0.80;99.90
32215;DHT22;18708;53.124;23.190;2023-03-03T06:55:09;0.90;99.90
32215;DHT22;18708;53.124;23.190;2023-03-03T06:57:36;0.90;99.90
32215;DHT22;18708;53.124;23.190;2023-03-03T07:00:34;0.90;99.90
32215;DHT22;18708;53.124;23.190;2023-03-03T07:03:24;0.90;99.90
32215;DHT22;18708;53.124;23.190;2023-03-03T07:05:51;1.00;99.90
32215;DHT22;18708;53.124;23.190;2023-03-03T07:08:20;1.00;99.90
32215;DHT22;18708;53.124;23.190;2023-03-03T07:10:47;1.00;99.90
32215;DHT22;18708;53.124;23.190;2023-03-03T07:13:21;1.00;99.90
32215;DHT22;18708;53.124;23.190;2023-03-03T07:15:48;1.00;99.90
32215;DHT22;18708;53.124;23.190;2023-03-03T07:20:54;1.00;99.90
32215;DHT22;18708;53.124;23.190;2023-03-03T07:23:52;1.00;99.90
32215;DHT22;18708;53.124;23.190;2023-03-03T07:26:20;1.00;99.90
32215;DHT22;18708;53.124;23.190;2023-03-03T07:28:59;1.00;99.90
32215;DHT22;18708;53.124;23.190;2023-03-03T07:31:29;1.00;99.90
32215;DHT22;18708;53.124;23.190;2023-03-03T07:33:57;1.00;99.90
32215;DHT22;18708;53.124;23.190;2023-03-03T07:38:56;0.90;99.90
32215;DHT22;18708;53.124;23.190;2023-03-03T07:41:22;0.90;99.90
32215;DHT22;18708;53.124;23.190;2023-03-03T07:44:01;0.80;99.90
32215;DHT22;18708;53.124;23.190;2023-03-03T07:46:43;0.80;99.90
32215;DHT22;18708;53.124;23.190;2023-03-03T07:49:33;0.80;99.90
32215;DHT22;18708;53.124;23.190;2023-03-03T07:52:00;0.80;99.90
32215;DHT22;18708;53.124;23.190;2023-03-03T08:05:37;0.80;99.90
32215;DHT22;18708;53.124;23.190;2023-03-03T08:10:52;0.80;99.90
32215;DHT22;18708;53.124;23.190;2023-03-03T08:13:23;0.80;99.90
32215;DHT22;18708;53.124;23.190;2023-03-03T08:15:52;0.80;99.90
32215;DHT22;18708;53.124;23.190;2023-03-03T08:18:27;0.70;99.90
32215;DHT22;18708;53.124;23.190;2023-03-03T08:20:58;0.70;99.90
32215;DHT22;18708;53.124;23.190;2023-03-03T08:23:24;0.70;99.90
32215;DHT22;18708;53.124;23.190;2023-03-03T08:25:51;0.70;99.90
32215;DHT22;18708;53.124;23.190;2023-03-03T08:28:17;0.60;99.90
32215;DHT22;18708;53.124;23.190;2023-03-03T08:30:43;0.60;99.90
32215;DHT22;18708;53.124;23.190;2023-03-03T08:33:09;0.60;99.90
32215;DHT22;18708;53.124;23.190;2023-03-03T08:35:35;0.70;99.90
32215;DHT22;18708;53.124;23.190;2023-03-03T08:38:03;0.70;99.90
32215;DHT22;18708;53.124;23.190;2023-03-03T08:40:29;0.70;99.90
32215;DHT22;18708;53.124;23.190;2023-03-03T08:42:55;0.80;99.90
32215;DHT22;18708;53.124;23.190;2023-03-03T08:45:23;0.90;99.90
32215;DHT22;18708;53.124;23.190;2023-03-03T08:47:48;0.90;99.90
32215;DHT22;18708;53.124;23.190;2023-03-03T08:50:14;0.90;99.90
32215;DHT22;18708;53.124;23.190;2023-03-03T08:52:40;0.90;99.90
32215;DHT22;18708;53.124;23.190;2023-03-03T08:55:06;0.80;99.90
32215;DHT22;18708;53.124;23.190;2023-03-03T08:57:32;0.80;99.90
32215;DHT22;18708;53.124;23.190;2023-03-03T09:00:00;0.80;99.90
32215;DHT22;18708;53.124;23.190;2023-03-03T09:02:26;0.70;99.90
32215;DHT22;18708;53.124;23.190;2023-03-03T09:04:51;0.80;99.90
32215;DHT22;18708;53.124;23.190;2023-03-03T09:07:20;0.80;99.90
32215;DHT22;18708;53.124;23.190;2023-03-03T09:09:46;0.80;99.90
32215;DHT22;18708;53.124;23.190;2023-03-03T09:12:38;0.80;99.90
32215;DHT22;18708;53.124;23.190;2023-03-03T09:17:40;0.80;99.90
32215;DHT22;18708;53.124;23.190;2023-03-03T09:20:24;0.80;99.90
32215;DHT22;18708;53.124;23.190;2023-03-03T09:22:51;0.80;99.90
32215;DHT22;18708;53.124;23.190;2023-03-03T09:25:33;0.80;99.90
32215;DHT22;18708;53.124;23.190;2023-03-03T09:28:00;0.90;99.90
32215;DHT22;18708;53.124;23.190;2023-03-03T09:30:38;0.90;99.90
32215;DHT22;18708;53.124;23.190;2023-03-03T09:33:40;0.90;99.90
32215;DHT22;18708;53.124;23.190;2023-03-03T09:38:48;1.00;99.90
32215;DHT22;18708;53.124;23.190;2023-03-03T09:49:31;1.20;99.90
32215;DHT22;18708;53.124;23.190;2023-03-03T09:54:53;1.30;99.90
32215;DHT22;18708;53.124;23.190;2023-03-03T09:57:32;1.30;99.90
32215;DHT22;18708;53.124;23.190;2023-03-03T10:00:18;1.40;99.90
32215;DHT22;18708;53.124;23.190;2023-03-03T10:06:16;1.40;99.90
32215;DHT22;18708;53.124;23.190;2023-03-03T10:09:34;1.40;99.90
32215;DHT22;18708;53.124;23.190;2023-03-03T10:12:07;1.50;99.90
32215;DHT22;18708;53.124;23.190;2023-03-03T10:22:55;1.60;99.90
32215;DHT22;18708;53.124;23.190;2023-03-03T10:28:27;1.70;99.90
32215;DHT22;18708;53.124;23.190;2023-03-03T10:31:16;1.70;99.90
32215;DHT22;18708;53.124;23.190;2023-03-03T10:34:14;1.80;99.90
32215;DHT22;18708;53.124;23.190;2023-03-03T10:45:21;1.80;99.90
32215;DHT22;18708;53.124;23.190;2023-03-03T10:53:42;2.00;99.90
32215;DHT22;18708;53.124;23.190;2023-03-03T11:06:51;2.00;99.90
32215;DHT22;18708;53.124;23.190;2023-03-03T11:15:12;2.00;99.90
32215;DHT22;18708;53.124;23.190;2023-03-03T11:28:53;2.00;99.90
32215;DHT22;18708;53.124;23.190;2023-03-03T11:34:06;2.00;99.90
32215;DHT22;18708;53.124;23.190;2023-03-03T11:39:45;2.20;99.90
32215;DHT22;18708;53.124;23.190;2023-03-03T11:45:18;2.30;99.90
32215;DHT22;18708;53.124;23.190;2023-03-03T11:48:41;2.20;99.90
32215;DHT22;18708;53.124;23.190;2023-03-03T11:53:24;2.40;99.90
32215;DHT22;18708;53.124;23.190;2023-03-03T11:56:03;2.40;99.90
32215;DHT22;18708;53.124;23.190;2023-03-03T11:58:40;2.50;99.90
32215;DHT22;18708;53.124;23.190;2023-03-03T12:01:45;2.40;99.90
32215;DHT22;18708;53.124;23.190;2023-03-03T12:04:26;2.40;99.90
32215;DHT22;18708;53.124;23.190;2023-03-03T12:09:48;2.30;99.90
32215;DHT22;18708;53.124;23.190;2023-03-03T12:20:08;2.60;99.90
32215;DHT22;18708;53.124;23.190;2023-03-03T12:25:44;2.70;77.50
32215;DHT22;18708;53.124;23.190;2023-03-03T12:28:28;2.70;1.00
32215;DHT22;18708;53.124;23.190;2023-03-03T12:31:28;2.70;1.00
32215;DHT22;18708;53.124;23.190;2023-03-03T12:36:54;2.60;1.00
32215;DHT22;18708;53.124;23.190;2023-03-03T12:39:40;2.60;1.00
32215;DHT22;18708;53.124;23.190;2023-03-03T12:44:43;2.70;1.00
32215;DHT22;18708;53.124;23.190;2023-03-03T13:06:19;2.90;99.90
32215;DHT22;18708;53.124;23.190;2023-03-03T13:09:00;3.10;99.90
32215;DHT22;18708;53.124;23.190;2023-03-03T13:17:27;3.50;1.00
32215;DHT22;18708;53.124;23.190;2023-03-03T13:19:58;3.60;37.50
32215;DHT22;18708;53.124;23.190;2023-03-03T13:22:39;4.00;30.00
32215;DHT22;18708;53.124;23.190;2023-03-03T13:27:57;4.20;1.00
32215;DHT22;18708;53.124;23.190;2023-03-03T13:30:34;4.20;1.00
32215;DHT22;18708;53.124;23.190;2023-03-03T13:36:16;3.80;1.00
32215;DHT22;18708;53.124;23.190;2023-03-03T13:38:47;3.80;1.00
32215;DHT22;18708;53.124;23.190;2023-03-03T13:43:50;3.80;1.00
32215;DHT22;18708;53.124;23.190;2023-03-03T13:46:33;3.70;1.00
32215;DHT22;18708;53.124;23.190;2023-03-03T14:13:33;3.80;1.00
32215;DHT22;18708;53.124;23.190;2023-03-03T14:16:06;3.80;1.00
32215;DHT22;18708;53.124;23.190;2023-03-03T14:18:55;3.70;1.00
32215;DHT22;18708;53.124;23.190;2023-03-03T14:21:29;3.60;1.00
32215;DHT22;18708;53.124;23.190;2023-03-03T14:24:14;3.50;1.00
32215;DHT22;18708;53.124;23.190;2023-03-03T14:26:53;3.30;1.00
32215;DHT22;18708;53.124;23.190;2023-03-03T14:29:30;3.30;1.00
32215;DHT22;18708;53.124;23.190;2023-03-03T14:32:01;3.40;1.00
32215;DHT22;18708;53.124;23.190;2023-03-03T14:34:44;3.40;1.00
32215;DHT22;18708;53.124;23.190;2023-03-03T14:37:24;3.50;1.00
32215;DHT22;18708;53.124;23.190;2023-03-03T14:45:33;3.30;1.00
32215;DHT22;18708;53.124;23.190;2023-03-03T14:48:24;3.10;1.00
32215;DHT22;18708;53.124;23.190;2023-03-03T14:50:58;3.10;1.00
32215;DHT22;18708;53.124;23.190;2023-03-03T14:53:41;2.90;1.00
32215;DHT22;18708;53.124;23.190;2023-03-03T14:58:47;2.90;1.00
32215;DHT22;18708;53.124;23.190;2023-03-03T15:04:06;2.70;1.00
32215;DHT22;18708;53.124;23.190;2023-03-03T15:06:47;2.60;1.00
32215;DHT22;18708;53.124;23.190;2023-03-03T15:11:56;2.60;1.00
32215;DHT22;18708;53.124;23.190;2023-03-03T15:14:31;2.50;1.00
32215;DHT22;18708;53.124;23.190;2023-03-03T15:17:22;2.50;87.90
32215;DHT22;18708;53.124;23.190;2023-03-03T15:25:32;2.40;99.90
32215;DHT22;18708;53.124;23.190;2023-03-03T15:34:20;2.30;99.90
32215;DHT22;18708;53.124;23.190;2023-03-03T15:37:08;2.30;99.90
32215;DHT22;18708;53.124;23.190;2023-03-03T15:39:45;2.30;99.90
32215;DHT22;18708;53.124;23.190;2023-03-03T15:42:21;2.30;99.90
32215;DHT22;18708;53.124;23.190;2023-03-03T15:53:37;2.20;99.90
32215;DHT22;18708;53.124;23.190;2023-03-03T15:56:22;2.20;99.90
32215;DHT22;18708;53.124;23.190;2023-03-03T15:59:43;2.20;99.90
32215;DHT22;18708;53.124;23.190;2023-03-03T16:02:14;2.10;99.90
32215;DHT22;18708;53.124;23.190;2023-03-03T16:04:55;2.00;1.00
32215;DHT22;18708;53.124;23.190;2023-03-03T16:13:10;2.00;1.00
32215;DHT22;18708;53.124;23.190;2023-03-03T16:16:36;2.00;1.00
32215;DHT22;18708;53.124;23.190;2023-03-03T16:27:04;2.00;1.00
32215;DHT22;18708;53.124;23.190;2023-03-03T16:29:56;2.00;1.00
32215;DHT22;18708;53.124;23.190;2023-03-03T16:35:36;1.80;1.00
32215;DHT22;18708;53.124;23.190;2023-03-03T16:38:18;1.80;1.00
32215;DHT22;18708;53.124;23.190;2023-03-03T16:40:57;1.80;1.00
32215;DHT22;18708;53.124;23.190;2023-03-03T16:46:31;1.80;1.00
32215;DHT22;18708;53.124;23.190;2023-03-03T16:49:09;1.80;1.00
32215;DHT22;18708;53.124;23.190;2023-03-03T16:54:40;1.70;1.00
32215;DHT22;18708;53.124;23.190;2023-03-03T17:00:04;1.60;99.90
32215;DHT22;18708;53.124;23.190;2023-03-03T17:05:48;1.60;99.90
32215;DHT22;18708;53.124;23.190;2023-03-03T17:11:04;1.70;99.90
32215;DHT22;18708;53.124;23.190;2023-03-03T17:16:50;1.60;99.90
32215;DHT22;18708;53.124;23.190;2023-03-03T17:27:31;1.50;99.90
32215;DHT22;18708;53.124;23.190;2023-03-03T17:38:56;1.40;1.00
32215;DHT22;18708;53.124;23.190;2023-03-03T17:44:14;1.40;1.00
32215;DHT22;18708;53.124;23.190;2023-03-03T17:46:54;1.40;1.00
32215;DHT22;18708;53.124;23.190;2023-03-03T17:49:50;1.40;1.00
32215;DHT22;18708;53.124;23.190;2023-03-03T17:52:56;1.40;1.00
32215;DHT22;18708;53.124;23.190;2023-03-03T17:58:30;1.40;1.00
32215;DHT22;18708;53.124;23.190;2023-03-03T18:09:23;1.30;1.00
32215;DHT22;18708;53.124;23.190;2023-03-03T18:12:15;1.20;1.00
32215;DHT22;18708;53.124;23.190;2023-03-03T18:25:57;1.10;1.00
32215;DHT22;18708;53.124;23.190;2023-03-03T18:28:46;1.10;1.00
32215;DHT22;18708;53.124;23.190;2023-03-03T18:31:24;1.10;1.00
32215;DHT22;18708;53.124;23.190;2023-03-03T18:34:09;1.10;1.00
32215;DHT22;18708;53.124;23.190;2023-03-03T18:36:56;1.10;1.00
32215;DHT22;18708;53.124;23.190;2023-03-03T18:39:46;1.10;1.00
32215;DHT22;18708;53.124;23.190;2023-03-03T18:44:42;1.20;1.00
32215;DHT22;18708;53.124;23.190;2023-03-03T18:47:08;1.10;1.00
32215;DHT22;18708;53.124;23.190;2023-03-03T18:49:50;1.20;1.00
32215;DHT22;18708;53.124;23.190;2023-03-03T18:58:00;1.10;1.00
32215;DHT22;18708;53.124;23.190;2023-03-03T19:00:28;1.10;1.00
32215;DHT22;18708;53.124;23.190;2023-03-03T19:02:57;1.10;1.00
32215;DHT22;18708;53.124;23.190;2023-03-03T19:05:46;1.10;1.00
32215;DHT22;18708;53.124;23.190;2023-03-03T19:10:56;1.10;1.00
32215;DHT22;18708;53.124;23.190;2023-03-03T19:16:03;1.10;1.00
32215;DHT22;18708;53.124;23.190;2023-03-03T19:21:20;1.20;1.00
32215;DHT22;18708;53.124;23.190;2023-03-03T19:32:33;1.10;1.00
32215;DHT22;18708;53.124;23.190;2023-03-03T19:35:23;1.10;1.00
32215;DHT22;18708;53.124;23.190;2023-03-03T19:40:44;1.10;1.00
32215;DHT22;18708;53.124;23.190;2023-03-03T19:52:07;1.10;1.00
32215;DHT22;18708;53.124;23.190;2023-03-03T19:54:43;1.00;1.00
32215;DHT22;18708;53.124;23.190;2023-03-03T20:12:02;1.10;1.00
32215;DHT22;18708;53.124;23.190;2023-03-03T20:14:38;1.10;1.00
32215;DHT22;18708;53.124;23.190;2023-03-03T20:17:16;1.10;1.00
32215;DHT22;18708;53.124;23.190;2023-03-03T20:19:54;1.10;1.00
32215;DHT22;18708;53.124;23.190;2023-03-03T20:30:55;0.90;1.00
32215;DHT22;18708;53.124;23.190;2023-03-03T20:36:13;0.90;1.00
32215;DHT22;18708;53.124;23.190;2023-03-03T20:44:52;1.00;1.00
32215;DHT22;18708;53.124;23.190;2023-03-03T20:50:02;1.00;1.00
32215;DHT22;18708;53.124;23.190;2023-03-03T21:03:09;0.80;1.00
32215;DHT22;18708;53.124;23.190;2023-03-03T21:05:56;0.80;1.00
32215;DHT22;18708;53.124;23.190;2023-03-03T21:11:05;0.80;1.00
32215;DHT22;18708;53.124;23.190;2023-03-03T21:19:05;0.60;25.40
32215;DHT22;18708;53.124;23.190;2023-03-03T21:21:33;0.70;18.10
32215;DHT22;18708;53.124;23.190;2023-03-03T21:23:59;0.70;1.00
32215;DHT22;18708;53.124;23.190;2023-03-03T21:26:53;0.60;1.00
32215;DHT22;18708;53.124;23.190;2023-03-03T21:29:28;0.60;11.10
32215;DHT22;18708;53.124;23.190;2023-03-03T21:31:55;0.60;1.00
32215;DHT22;18708;53.124;23.190;2023-03-03T21:36:49;0.60;1.00
32215;DHT22;18708;53.124;23.190;2023-03-03T21:42:03;0.50;1.00
32215;DHT22;18708;53.124;23.190;2023-03-03T21:46:59;0.50;1.00
32215;DHT22;18708;53.124;23.190;2023-03-03T21:49:25;0.50;2.20
32215;DHT22;18708;53.124;23.190;2023-03-03T21:51:51;0.40;6.50
32215;DHT22;18708;53.124;23.190;2023-03-03T21:54:17;0.40;13.30
32215;DHT22;18708;53.124;23.190;2023-03-03T21:56:42;0.30;21.20
32215;DHT22;18708;53.124;23.190;2023-03-03T21:59:08;0.40;38.50
32215;DHT22;18708;53.124;23.190;2023-03-03T22:01:34;0.40;35.90
32215;DHT22;18708;53.124;23.190;2023-03-03T22:04:00;0.40;23.80
32215;DHT22;18708;53.124;23.190;2023-03-03T22:06:26;0.30;51.90
32215;DHT22;18708;53.124;23.190;2023-03-03T22:08:52;0.30;47.40
32215;DHT22;18708;53.124;23.190;2023-03-03T22:11:17;0.30;34.30
32215;DHT22;18708;53.124;23.190;2023-03-03T22:13:43;0.30;31.00
32215;DHT22;18708;53.124;23.190;2023-03-03T22:16:08;0.30;22.10
32215;DHT22;18708;53.124;23.190;2023-03-03T22:18:36;0.30;30.40
32215;DHT22;18708;53.124;23.190;2023-03-03T22:21:01;0.40;30.20
32215;DHT22;18708;53.124;23.190;2023-03-03T22:23:27;0.30;32.50
32215;DHT22;18708;53.124;23.190;2023-03-03T22:25:55;0.10;95.10
32215;DHT22;18708;53.124;23.190;2023-03-03T22:28:21;0.10;99.90
32215;DHT22;18708;53.124;23.190;2023-03-03T22:30:47;0.10;99.90
32215;DHT22;18708;53.124;23.190;2023-03-03T22:33:13;0.20;99.90
32215;DHT22;18708;53.124;23.190;2023-03-03T22:35:38;0.20;99.90
32215;DHT22;18708;53.124;23.190;2023-03-03T22:38:04;0.20;96.40
32215;DHT22;18708;53.124;23.190;2023-03-03T22:40:30;0.20;99.90
32215;DHT22;18708;53.124;23.190;2023-03-03T22:42:56;0.20;97.40
32215;DHT22;18708;53.124;23.190;2023-03-03T22:45:22;0.20;99.90
32215;DHT22;18708;53.124;23.190;2023-03-03T22:47:47;0.20;99.90